Time;durP1;ratioP1;P1;durP2;ratioP2;P2;SDS_P1;SDS_P2;PMS_P1;PMS_P2;Temp;Humidity;BMP_temperature;BMP_pressure;BME280_temperature;BME280_humidity;BME280_pressure;Samples;Min_cycle;Max_cycle;Signal;HPM_P1;HPM_P2
2023/03/10 00:00:34;;;;;;;3.22;1.20;;;6.50;58.60;;;;;;5055137;28;20264;-73
2023/03/10 00:03:01;;;;;;;2.35;1.30;;;6.50;58.40;;;;;;5062743;28;20187;-70
2023/03/10 00:05:28;;;;;;;2.08;1.00;;;6.50;58.30;;;;;;5054102;28;20291;-80
2023/03/10 00:08:02;;;;;;;3.97;1.48;;;6.50;58.30;;;;;;5055798;28;20321;-71
2023/03/10 00:10:29;;;;;;;4.35;1.33;;;6.50;58.30;;;;;;5054858;28;20277;-76
2023/03/10 00:12:56;;;;;;;2.65;1.10;;;6.40;58.20;;;;;;5051177;28;20278;-71
2023/03/10 00:15:23;;;;;;;4.55;1.23;;;6.50;58.20;;;;;;5055426;28;20293;-70
2023/03/10 00:17:54;;;;;;;2.40;1.20;;;6.50;57.80;;;;;;5065465;28;20600;-70
2023/03/10 00:20:25;;;;;;;3.92;1.30;;;6.40;57.70;;;;;;5074917;28;20216;-70
2023/03/10 00:22:55;;;;;;;3.17;1.15;;;6.40;58.10;;;;;;5045839;28;20262;-70
2023/03/10 00:25:23;;;;;;;2.33;0.93;;;6.30;58.10;;;;;;5053977;28;20186;-70
2023/03/10 00:27:58;;;;;;;2.20;1.10;;;6.30;58.00;;;;;;5067912;28;20324;-70
2023/03/10 00:30:25;;;;;;;3.08;1.20;;;6.30;58.30;;;;;;5070380;28;20611;-70
2023/03/10 00:32:57;;;;;;;3.80;1.10;;;6.20;58.30;;;;;;5074605;28;20255;-70
2023/03/10 00:35:24;;;;;;;2.80;1.48;;;6.20;58.30;;;;;;5061336;28;20641;-70
2023/03/10 00:37:52;;;;;;;3.40;1.30;;;6.20;58.30;;;;;;5054342;28;20233;-70
2023/03/10 00:40:19;;;;;;;4.35;1.75;;;6.20;58.60;;;;;;5045908;28;20178;-70
2023/03/10 00:42:48;;;;;;;8.50;2.58;;;6.20;59.10;;;;;;5053170;28;20226;-70
2023/03/10 00:45:15;;;;;;;5.88;1.88;;;6.20;59.60;;;;;;5059035;28;20192;-70
2023/03/10 00:47:47;;;;;;;3.85;2.20;;;6.10;59.80;;;;;;5074053;28;20312;-70
2023/03/10 00:50:14;;;;;;;3.97;2.47;;;6.10;60.30;;;;;;5059455;28;20191;-70
2023/03/10 00:52:41;;;;;;;3.28;2.17;;;6.00;59.80;;;;;;5053784;28;20197;-70
2023/03/10 00:55:08;;;;;;;5.13;2.67;;;5.90;59.60;;;;;;5055437;28;20731;-70
2023/03/10 00:57:37;;;;;;;6.15;2.70;;;5.80;59.80;;;;;;5072122;28;20213;-70
2023/03/10 01:00:07;;;;;;;3.70;1.67;;;5.80;60.20;;;;;;5060655;28;20213;-70
2023/03/10 01:02:34;;;;;;;4.75;2.08;;;5.70;60.70;;;;;;5054205;28;20194;-70
2023/03/10 01:05:03;;;;;;;5.97;2.00;;;5.70;61.10;;;;;;5051656;28;20233;-70
2023/03/10 01:07:31;;;;;;;2.40;1.30;;;5.70;61.50;;;;;;5034815;28;20207;-70
2023/03/10 01:09:59;;;;;;;4.18;1.75;;;5.70;61.30;;;;;;5035505;28;20208;-76
2023/03/10 01:12:26;;;;;;;3.38;1.85;;;5.60;62.50;;;;;;5058195;28;20189;-70
2023/03/10 01:14:57;;;;;;;2.35;1.27;;;5.60;62.60;;;;;;5068625;28;20174;-70
2023/03/10 01:17:26;;;;;;;3.17;1.65;;;5.60;62.50;;;;;;5037700;28;20200;-70
2023/03/10 01:19:53;;;;;;;4.85;1.90;;;5.50;62.60;;;;;;5053750;28;20281;-79
2023/03/10 01:22:24;;;;;;;3.40;1.58;;;5.50;62.40;;;;;;5067985;28;20224;-71
2023/03/10 01:24:51;;;;;;;3.05;1.67;;;5.50;62.30;;;;;;5065441;28;20219;-72
2023/03/10 01:27:20;;;;;;;2.65;1.50;;;5.40;62.50;;;;;;5044773;28;20241;-70
2023/03/10 01:29:51;;;;;;;2.85;1.77;;;5.40;63.40;;;;;;5054505;28;20236;-75
2023/03/10 01:32:25;;;;;;;4.00;1.27;;;5.40;63.70;;;;;;5072050;28;20532;-70
2023/03/10 01:34:52;;;;;;;7.68;1.58;;;5.40;63.80;;;;;;5070529;28;20217;-71
2023/03/10 01:37:20;;;;;;;2.83;1.40;;;5.50;63.80;;;;;;5052843;28;20281;-70
2023/03/10 01:39:52;;;;;;;2.70;1.15;;;5.60;63.30;;;;;;5053588;28;20265;-72
2023/03/10 01:42:20;;;;;;;10.95;1.92;;;5.70;61.80;;;;;;5053096;28;20283;-70
2023/03/10 01:45:09;;;;;;;3.40;1.27;;;5.70;61.30;;;;;;5053733;28;20231;-79
2023/03/10 01:47:41;;;;;;;3.53;1.75;;;5.80;61.40;;;;;;5051902;28;20246;-71
2023/03/10 01:50:12;;;;;;;2.88;1.23;;;5.80;61.50;;;;;;5051461;28;20179;-70
2023/03/10 01:52:42;;;;;;;3.33;1.27;;;5.90;61.90;;;;;;5048618;28;20194;-70
2023/03/10 01:55:13;;;;;;;5.40;1.58;;;5.90;61.60;;;;;;5048241;28;20337;-70
2023/03/10 01:57:43;;;;;;;4.35;2.10;;;6.00;61.10;;;;;;5032904;28;20242;-70
2023/03/10 02:00:13;;;;;;;3.50;1.85;;;6.00;60.80;;;;;;5038363;28;20248;-70
2023/03/10 02:02:52;;;;;;;3.92;1.45;;;6.00;61.10;;;;;;5043378;28;20182;-70
2023/03/10 02:05:20;;;;;;;2.80;1.85;;;6.00;61.00;;;;;;5054661;28;20641;-70
2023/03/10 02:07:48;;;;;;;3.92;2.10;;;6.00;60.20;;;;;;5072081;28;20307;-71
2023/03/10 02:10:17;;;;;;;2.47;1.65;;;6.00;60.50;;;;;;5069157;28;20222;-70
2023/03/10 02:12:44;;;;;;;2.78;1.50;;;6.00;60.40;;;;;;5072456;28;20708;-70
2023/03/10 02:15:13;;;;;;;6.18;1.30;;;6.00;60.40;;;;;;5063704;28;20266;-80
2023/03/10 02:17:42;;;;;;;2.35;1.27;;;6.10;59.70;;;;;;5050750;28;20218;-70
2023/03/10 02:20:29;;;;;;;5.03;1.17;;;6.10;59.50;;;;;;5047091;28;20668;-71
2023/03/10 02:22:56;;;;;;;2.83;1.10;;;6.10;59.60;;;;;;5052559;28;20222;-70
2023/03/10 02:25:34;;;;;;;2.05;0.90;;;6.10;59.90;;;;;;5042235;28;20187;-70
2023/03/10 02:28:04;;;;;;;2.10;1.05;;;6.10;59.90;;;;;;5032616;28;20266;-70
2023/03/10 02:30:34;;;;;;;3.70;1.67;;;6.20;60.20;;;;;;5039674;28;20613;-70
2023/03/10 02:33:11;;;;;;;3.28;1.38;;;6.20;60.90;;;;;;5050644;28;20277;-71
2023/03/10 02:35:38;;;;;;;4.93;1.88;;;6.20;62.30;;;;;;5046390;28;20726;-70
2023/03/10 02:38:05;;;;;;;3.40;1.58;;;6.20;62.30;;;;;;5052503;28;20194;-70
2023/03/10 02:40:36;;;;;;;4.78;2.00;;;6.20;62.60;;;;;;5046651;28;20274;-70
2023/03/10 02:43:20;;;;;;;2.72;1.70;;;6.20;62.70;;;;;;5052509;28;20213;-70
2023/03/10 02:45:54;;;;;;;2.88;1.50;;;6.10;62.40;;;;;;5048334;28;20293;-70
2023/03/10 02:48:24;;;;;;;3.13;1.48;;;6.10;62.50;;;;;;5052327;28;20260;-71
2023/03/10 02:50:52;;;;;;;2.40;1.33;;;6.10;62.50;;;;;;5041177;28;20193;-71
2023/03/10 02:53:21;;;;;;;5.80;1.80;;;6.20;62.30;;;;;;5052017;28;20708;-70
2023/03/10 02:55:49;;;;;;;2.65;1.23;;;6.10;61.60;;;;;;5068998;28;20246;-70
2023/03/10 02:58:17;;;;;;;3.60;1.40;;;6.20;61.70;;;;;;5072284;28;20193;-70
2023/03/10 03:00:51;;;;;;;3.10;1.10;;;6.10;61.60;;;;;;5048179;28;20187;-71
2023/03/10 03:03:20;;;;;;;2.72;1.58;;;6.20;61.60;;;;;;5051537;28;20240;-71
2023/03/10 03:05:55;;;;;;;2.08;0.90;;;6.20;61.30;;;;;;5037839;28;20712;-70
2023/03/10 03:08:32;;;;;;;2.75;1.23;;;6.30;61.80;;;;;;5035940;28;20630;-71
2023/03/10 03:11:00;;;;;;;2.45;0.82;;;6.40;62.00;;;;;;5048822;28;20185;-70
2023/03/10 03:13:28;;;;;;;3.13;1.40;;;6.40;61.80;;;;;;5055925;28;20256;-72
2023/03/10 03:15:55;;;;;;;2.70;1.25;;;6.40;62.00;;;;;;5044833;28;20270;-73
2023/03/10 03:18:28;;;;;;;4.50;2.15;;;6.40;62.70;;;;;;5056207;28;20282;-71
2023/03/10 03:20:55;;;;;;;4.10;2.20;;;6.40;63.10;;;;;;5048937;28;20265;-70
2023/03/10 03:23:24;;;;;;;7.00;3.05;;;6.40;63.00;;;;;;5055808;28;20233;-71
2023/03/10 03:25:51;;;;;;;4.82;2.33;;;6.40;63.40;;;;;;5053432;28;20276;-70
2023/03/10 03:28:18;;;;;;;4.07;1.40;;;6.40;63.50;;;;;;5054999;28;20325;-70
2023/03/10 03:30:46;;;;;;;2.95;1.65;;;6.40;63.50;;;;;;5048000;28;20272;-70
2023/03/10 03:33:15;;;;;;;5.22;1.63;;;6.40;63.20;;;;;;5075406;28;20256;-71
2023/03/10 03:35:44;;;;;;;4.68;2.20;;;6.40;63.20;;;;;;5070966;28;20186;-71
2023/03/10 03:38:11;;;;;;;4.78;2.25;;;6.40;63.20;;;;;;5075803;28;20292;-70
2023/03/10 03:40:38;;;;;;;4.68;2.25;;;6.40;64.00;;;;;;5059824;28;20520;-70
2023/03/10 03:43:07;;;;;;;2.80;1.15;;;6.50;64.10;;;;;;5055184;28;20280;-70
2023/03/10 03:45:34;;;;;;;2.40;1.40;;;6.50;63.60;;;;;;5053093;28;20228;-70
2023/03/10 03:48:03;;;;;;;5.95;1.15;;;6.50;63.00;;;;;;5055689;28;20253;-70
2023/03/10 03:50:30;;;;;;;2.85;1.40;;;6.50;63.20;;;;;;5055923;28;20289;-71
2023/03/10 03:52:58;;;;;;;2.80;1.17;;;6.40;63.00;;;;;;5054937;28;20222;-71
2023/03/10 03:55:25;;;;;;;3.70;1.30;;;6.40;62.80;;;;;;5044825;28;20278;-71
2023/03/10 03:57:56;;;;;;;12.02;1.20;;;6.40;62.70;;;;;;5035076;28;20234;-70
2023/03/10 04:00:24;;;;;;;2.95;1.25;;;6.40;62.50;;;;;;5040352;28;20191;-71
2023/03/10 04:02:52;;;;;;;3.00;1.02;;;6.40;62.40;;;;;;5055135;28;20197;-70
2023/03/10 04:05:32;;;;;;;2.78;1.55;;;6.40;62.20;;;;;;5052645;28;20199;-70
2023/03/10 04:08:02;;;;;;;3.35;1.38;;;6.40;62.30;;;;;;5037906;28;20210;-70
2023/03/10 04:10:34;;;;;;;7.43;2.85;;;6.40;64.10;;;;;;5042996;28;20187;-71
2023/03/10 04:13:06;;;;;;;5.63;2.47;;;6.40;62.90;;;;;;5055590;28;20210;-71
2023/03/10 04:15:33;;;;;;;3.45;1.75;;;6.40;62.90;;;;;;5034961;28;20226;-71
2023/03/10 04:18:00;;;;;;;2.50;1.27;;;6.30;62.80;;;;;;5038818;28;20194;-71
2023/03/10 04:20:27;;;;;;;2.70;1.30;;;6.30;62.70;;;;;;5054517;28;20285;-71
2023/03/10 04:22:55;;;;;;;1.80;0.90;;;6.30;62.40;;;;;;5058431;28;20260;-71
2023/03/10 04:25:22;;;;;;;9.48;2.20;;;6.30;62.80;;;;;;5074511;28;20328;-72
2023/03/10 04:27:51;;;;;;;3.80;1.65;;;6.20;62.50;;;;;;5034083;28;20326;-70
2023/03/10 04:30:19;;;;;;;3.70;1.65;;;6.20;62.70;;;;;;5034766;28;20277;-70
2023/03/10 04:32:46;;;;;;;2.20;1.30;;;6.20;63.10;;;;;;5046541;28;20190;-70
2023/03/10 04:35:15;;;;;;;2.42;1.02;;;6.20;63.20;;;;;;5054495;28;20222;-70
2023/03/10 04:37:47;;;;;;;2.38;1.00;;;6.30;63.40;;;;;;5041320;28;20263;-71
2023/03/10 04:40:16;;;;;;;2.47;1.30;;;6.30;63.50;;;;;;5054314;28;20197;-71
2023/03/10 04:42:43;;;;;;;2.60;1.20;;;6.40;63.10;;;;;;5067088;28;20541;-70
2023/03/10 04:45:14;;;;;;;2.42;0.90;;;6.50;63.10;;;;;;5074237;28;20656;-71
2023/03/10 04:47:43;;;;;;;2.10;1.05;;;6.60;63.20;;;;;;5057112;28;20229;-70
2023/03/10 04:50:16;;;;;;;2.85;1.20;;;6.70;63.00;;;;;;5053620;28;20256;-71
2023/03/10 04:52:43;;;;;;;4.55;1.30;;;6.80;63.00;;;;;;5064764;28;20525;-71
2023/03/10 04:55:11;;;;;;;2.20;1.10;;;6.90;63.00;;;;;;5068274;28;20657;-70
2023/03/10 04:57:39;;;;;;;2.50;1.00;;;7.00;63.10;;;;;;5071268;28;20240;-71
2023/03/10 05:00:12;;;;;;;2.60;1.20;;;7.00;63.70;;;;;;5073175;28;20376;-81
2023/03/10 05:02:40;;;;;;;3.35;1.00;;;7.10;64.20;;;;;;5050305;28;20277;-71
2023/03/10 05:05:08;;;;;;;3.40;1.17;;;7.30;64.90;;;;;;5051291;28;20654;-71
2023/03/10 05:07:39;;;;;;;2.78;1.23;;;7.40;65.20;;;;;;5056431;28;20277;-70
2023/03/10 05:10:07;;;;;;;2.67;1.42;;;7.40;65.80;;;;;;5070373;28;20225;-71
2023/03/10 05:12:34;;;;;;;3.15;1.20;;;7.50;66.40;;;;;;5043274;28;20672;-70
2023/03/10 05:15:03;;;;;;;2.30;1.20;;;7.50;66.90;;;;;;5053509;28;20229;-71
2023/03/10 05:17:30;;;;;;;6.75;1.40;;;7.50;67.30;;;;;;5053151;28;20194;-71
2023/03/10 05:20:03;;;;;;;3.80;1.40;;;7.50;67.80;;;;;;5053594;28;20369;-72
2023/03/10 05:22:30;;;;;;;3.38;1.10;;;7.50;68.70;;;;;;5055558;28;20210;-70
2023/03/10 05:24:59;;;;;;;2.03;1.25;;;7.50;69.40;;;;;;5053744;28;20336;-70
2023/03/10 05:27:26;;;;;;;2.38;1.17;;;7.60;69.70;;;;;;5054240;28;20712;-71
2023/03/10 05:29:53;;;;;;;3.60;1.40;;;7.60;70.00;;;;;;5053462;28;20313;-70
2023/03/10 05:32:21;;;;;;;2.00;1.20;;;7.70;70.60;;;;;;5054877;28;20657;-71
2023/03/10 05:34:50;;;;;;;2.55;1.13;;;7.80;70.90;;;;;;5052880;28;20226;-70
2023/03/10 05:37:19;;;;;;;2.72;1.38;;;7.90;71.80;;;;;;5063810;28;20281;-71
2023/03/10 05:39:46;;;;;;;3.25;1.40;;;8.00;71.80;;;;;;5068549;28;20648;-81
2023/03/10 05:42:13;;;;;;;3.40;1.50;;;8.00;72.50;;;;;;5053140;28;20190;-70
2023/03/10 05:44:40;;;;;;;3.72;1.35;;;8.10;72.90;;;;;;5049694;28;20737;-75
2023/03/10 05:47:07;;;;;;;2.60;1.20;;;8.10;73.10;;;;;;5044631;28;20599;-71
2023/03/10 05:49:36;;;;;;;5.25;2.50;;;8.20;73.50;;;;;;5052755;28;20261;-71
2023/03/10 05:52:04;;;;;;;2.83;1.70;;;8.30;73.50;;;;;;5058972;28;20223;-71
2023/03/10 05:54:36;;;;;;;3.03;1.95;;;8.30;73.40;;;;;;5044648;28;20230;-70
2023/03/10 05:57:03;;;;;;;2.80;1.58;;;8.40;73.40;;;;;;5044932;28;20214;-71
2023/03/10 05:59:30;;;;;;;5.55;1.70;;;8.40;73.60;;;;;;5046031;28;20190;-71
2023/03/10 06:01:57;;;;;;;3.85;1.70;;;8.60;74.00;;;;;;5043509;28;20216;-71
2023/03/10 06:04:27;;;;;;;2.90;1.50;;;8.60;73.70;;;;;;5049975;28;20197;-70
2023/03/10 06:06:59;;;;;;;3.15;1.45;;;8.70;74.00;;;;;;5040817;28;20240;-73
2023/03/10 06:09:31;;;;;;;4.30;1.95;;;8.70;74.10;;;;;;5038145;28;20226;-71
2023/03/10 06:11:59;;;;;;;4.25;2.03;;;8.80;73.80;;;;;;5050402;28;20191;-71
2023/03/10 06:14:30;;;;;;;3.45;2.08;;;8.80;73.60;;;;;;5041927;28;20178;-71
2023/03/10 06:17:03;;;;;;;4.70;1.77;;;8.80;73.40;;;;;;5050429;28;20222;-71
2023/03/10 06:19:32;;;;;;;5.15;2.05;;;8.90;73.30;;;;;;5045756;28;20257;-71
2023/03/10 06:22:00;;;;;;;2.85;1.73;;;8.90;73.30;;;;;;5050019;28;20196;-71
2023/03/10 06:24:28;;;;;;;3.42;1.50;;;9.00;73.50;;;;;;5043792;28;20287;-71
2023/03/10 06:26:55;;;;;;;4.05;2.10;;;9.20;73.50;;;;;;5049601;28;20329;-73
2023/03/10 06:29:22;;;;;;;3.97;1.70;;;9.20;73.10;;;;;;5043190;28;20254;-71
2023/03/10 06:31:49;;;;;;;4.72;2.20;;;9.40;73.30;;;;;;5049902;28;20225;-71
2023/03/10 06:34:16;;;;;;;4.97;2.78;;;9.50;73.00;;;;;;5043208;28;20624;-70
2023/03/10 06:36:43;;;;;;;3.55;2.03;;;9.50;73.00;;;;;;5050036;28;20289;-70
2023/03/10 06:39:12;;;;;;;4.10;2.60;;;9.50;73.00;;;;;;5047483;28;20273;-71
2023/03/10 06:41:39;;;;;;;7.00;2.20;;;9.60;72.30;;;;;;5050706;28;20198;-71
2023/03/10 06:44:06;;;;;;;6.07;3.00;;;9.70;72.00;;;;;;5047913;28;20353;-70
2023/03/10 06:46:33;;;;;;;6.07;2.90;;;9.80;72.00;;;;;;5049538;28;20226;-71
2023/03/10 06:49:00;;;;;;;7.60;4.03;;;9.90;71.40;;;;;;5043163;28;20297;-73
2023/03/10 06:51:26;;;;;;;8.20;2.80;;;9.80;71.10;;;;;;5043486;28;20280;-70
2023/03/10 06:53:56;;;;;;;2.65;1.48;;;9.90;71.10;;;;;;5044540;28;20649;-71
2023/03/10 06:56:24;;;;;;;3.33;1.75;;;10.00;69.20;;;;;;5041600;28;20614;-71
2023/03/10 06:58:53;;;;;;;2.80;1.35;;;10.10;68.60;;;;;;5049090;28;20689;-71
2023/03/10 07:01:27;;;;;;;2.85;1.40;;;10.10;68.40;;;;;;5050705;28;20285;-71
2023/03/10 07:03:54;;;;;;;5.80;1.45;;;10.20;68.20;;;;;;5045474;28;20612;-71
2023/03/10 07:06:22;;;;;;;7.88;2.03;;;10.10;68.10;;;;;;5049693;28;20190;-79
2023/03/10 07:08:50;;;;;;;3.92;1.58;;;10.30;68.30;;;;;;5043919;28;20301;-69
2023/03/10 07:11:17;;;;;;;5.88;1.52;;;10.30;68.50;;;;;;5045318;28;20248;-69
2023/03/10 07:13:47;;;;;;;3.33;1.42;;;10.30;68.10;;;;;;5045619;28;20190;-73
2023/03/10 07:16:14;;;;;;;3.75;1.27;;;10.40;67.40;;;;;;5042871;28;20194;-72
2023/03/10 07:18:42;;;;;;;2.88;1.63;;;10.40;67.30;;;;;;5048935;28;20299;-71
2023/03/10 07:21:10;;;;;;;6.57;2.88;;;10.50;66.60;;;;;;5049959;28;20230;-71
2023/03/10 07:23:38;;;;;;;3.85;2.15;;;10.50;66.70;;;;;;5049742;28;20532;-71
2023/03/10 07:26:07;;;;;;;9.60;3.50;;;10.50;66.40;;;;;;5049068;28;20248;-71
2023/03/10 07:28:35;;;;;;;4.30;2.10;;;10.50;66.00;;;;;;5048458;28;20286;-71
2023/03/10 07:31:05;;;;;;;4.50;2.45;;;10.50;66.30;;;;;;5048724;28;20240;-74
2023/03/10 07:33:32;;;;;;;3.25;1.70;;;10.50;66.70;;;;;;5040042;28;20273;-71
2023/03/10 07:36:04;;;;;;;5.60;1.67;;;10.50;66.60;;;;;;5042131;28;20433;-71
2023/03/10 07:38:31;;;;;;;2.42;1.50;;;10.70;66.00;;;;;;5049768;28;20286;-70
2023/03/10 07:40:58;;;;;;;4.32;1.60;;;10.70;65.80;;;;;;5049996;28;20282;-69
2023/03/10 07:43:25;;;;;;;3.97;2.50;;;10.80;64.00;;;;;;5049939;28;20270;-72
2023/03/10 07:45:52;;;;;;;3.35;1.45;;;10.90;63.40;;;;;;5049547;28;20190;-69
2023/03/10 07:48:21;;;;;;;5.35;2.00;;;11.00;63.30;;;;;;5048505;28;20218;-72
2023/03/10 07:50:56;;;;;;;3.20;1.50;;;11.20;62.70;;;;;;5050657;28;20276;-71
2023/03/10 07:53:23;;;;;;;3.75;1.80;;;11.30;61.80;;;;;;5053662;28;20281;-69
2023/03/10 07:55:50;;;;;;;4.60;1.88;;;11.50;61.20;;;;;;5053181;28;20804;-72
2023/03/10 07:58:17;;;;;;;3.83;1.50;;;11.60;61.20;;;;;;5047871;28;20194;-70
2023/03/10 08:00:44;;;;;;;3.53;1.67;;;11.80;60.60;;;;;;5052091;28;20248;-70
2023/03/10 08:03:12;;;;;;;4.93;2.00;;;12.00;59.90;;;;;;5051807;28;20281;-70
2023/03/10 08:05:42;;;;;;;4.47;2.20;;;12.00;58.40;;;;;;5051634;28;20218;-71
2023/03/10 08:08:09;;;;;;;3.70;1.95;;;12.10;58.40;;;;;;5048078;28;20190;-70
2023/03/10 08:10:36;;;;;;;5.68;1.83;;;12.10;58.10;;;;;;5053438;28;20268;-70
2023/03/10 08:13:03;;;;;;;3.20;1.83;;;12.10;58.20;;;;;;5047369;28;20221;-71
2023/03/10 08:15:31;;;;;;;3.50;2.03;;;12.10;57.90;;;;;;5043776;28;20191;-70
2023/03/10 08:17:58;;;;;;;6.05;1.90;;;12.30;57.60;;;;;;5043844;28;20190;-71
2023/03/10 08:20:26;;;;;;;3.25;1.48;;;12.50;57.40;;;;;;5038511;28;20245;-70
2023/03/10 08:22:54;;;;;;;5.25;2.05;;;13.00;56.30;;;;;;5048841;28;20230;-70
2023/03/10 08:25:21;;;;;;;5.03;2.83;;;14.10;55.70;;;;;;5051980;28;20272;-72
2023/03/10 08:27:49;;;;;;;4.57;2.33;;;16.10;53.10;;;;;;5049095;28;20222;-70
2023/03/10 08:30:17;;;;;;;4.30;2.40;;;19.30;47.20;;;;;;5032897;28;20517;-71
2023/03/10 08:32:44;;;;;;;4.83;2.43;;;21.80;41.80;;;;;;5038066;28;20469;-71
2023/03/10 08:35:12;;;;;;;3.70;1.83;;;23.60;36.60;;;;;;5047369;28;20436;-72
2023/03/10 08:37:39;;;;;;;3.97;2.37;;;24.20;32.00;;;;;;5044432;28;20430;-71
2023/03/10 08:40:10;;;;;;;4.10;1.60;;;24.00;30.90;;;;;;5045311;28;20421;-71
2023/03/10 08:42:37;;;;;;;4.50;2.10;;;23.90;29.80;;;;;;5050159;28;20445;-71
2023/03/10 08:45:06;;;;;;;4.30;2.33;;;23.70;30.00;;;;;;5048196;28;20461;-72
2023/03/10 08:47:33;;;;;;;3.37;1.77;;;23.60;29.30;;;;;;5044747;28;20491;-71
2023/03/10 08:50:01;;;;;;;7.30;1.90;;;24.00;29.10;;;;;;5047647;28;20480;-71
2023/03/10 08:52:28;;;;;;;3.67;1.90;;;24.30;27.40;;;;;;5048603;28;20445;-72
2023/03/10 08:54:55;;;;;;;3.43;2.50;;;24.20;27.60;;;;;;5036849;28;20438;-71
2023/03/10 08:57:24;;;;;;;5.33;2.17;;;23.80;27.60;;;;;;5040800;28;20441;-71
2023/03/10 08:59:51;;;;;;;5.70;1.97;;;23.20;27.80;;;;;;5053125;28;20449;-71
2023/03/10 09:02:20;;;;;;;2.97;1.47;;;22.60;28.40;;;;;;5043695;28;20460;-72
2023/03/10 09:04:48;;;;;;;4.57;2.00;;;24.20;29.00;;;;;;5047765;28;20495;-72
2023/03/10 09:07:15;;;;;;;3.73;1.67;;;27.40;27.60;;;;;;5047922;28;20523;-72
2023/03/10 09:09:42;;;;;;;3.80;1.40;;;29.50;24.20;;;;;;5046811;28;20982;-71
2023/03/10 09:12:09;;;;;;;3.80;1.50;;;32.50;21.00;;;;;;5036868;28;20446;-72
2023/03/10 09:14:38;;;;;;;3.17;1.30;;;35.60;18.70;;;;;;5050803;28;20436;-72
2023/03/10 09:17:06;;;;;;;3.37;1.60;;;38.60;16.70;;;;;;5043404;28;20434;-73
2023/03/10 09:19:33;;;;;;;3.03;1.73;;;38.60;13.50;;;;;;5047655;28;20486;-73
2023/03/10 09:22:00;;;;;;;3.10;1.30;;;35.50;14.00;;;;;;5045356;28;20510;-72
2023/03/10 09:24:29;;;;;;;4.40;1.63;;;33.40;15.90;;;;;;5051484;28;20452;-74
2023/03/10 09:26:56;;;;;;;2.87;1.20;;;35.30;15.90;;;;;;5049628;28;20522;-74
2023/03/10 09:29:23;;;;;;;3.70;1.63;;;38.20;14.60;;;;;;5055998;28;20445;-73
2023/03/10 09:31:52;;;;;;;2.50;1.40;;;40.00;12.90;;;;;;5044280;28;20452;-72
2023/03/10 09:34:19;;;;;;;2.90;1.60;;;40.40;11.40;;;;;;5047718;28;20441;-70
2023/03/10 09:36:46;;;;;;;2.70;1.07;;;40.10;11.80;;;;;;5048434;28;20843;-70
2023/03/10 09:39:13;;;;;;;3.70;1.53;;;38.00;12.20;;;;;;5046161;28;20441;-73
2023/03/10 09:42:03;;;;;;;4.03;1.37;;;35.80;13.60;;;;;;5047529;28;20430;-72
2023/03/10 09:44:41;;;;;;;3.30;1.40;;;33.50;15.30;;;;;;5045146;28;20450;-72
2023/03/10 09:47:26;;;;;;;3.47;1.23;;;30.90;16.80;;;;;;5047149;28;20870;-71
2023/03/10 09:50:09;;;;;;;3.63;1.40;;;28.60;19.00;;;;;;5036584;28;20499;-71
2023/03/10 09:52:45;;;;;;;3.60;1.27;;;26.70;20.40;;;;;;5047536;28;20528;-70
2023/03/10 09:55:21;;;;;;;6.13;1.80;;;25.00;21.50;;;;;;5047415;28;20444;-70
2023/03/10 09:57:50;;;;;;;4.00;1.20;;;23.60;22.90;;;;;;5042034;28;20473;-70
2023/03/10 10:00:24;;;;;;;4.90;1.10;;;22.20;24.80;;;;;;5045335;28;20499;-69
2023/03/10 10:03:01;;;;;;;2.80;1.00;;;21.10;26.50;;;;;;5043837;28;20448;-71
2023/03/10 10:05:33;;;;;;;1.90;1.00;;;19.90;28.10;;;;;;5043728;28;20444;-70
2023/03/10 10:08:05;;;;;;;2.07;1.20;;;18.90;29.60;;;;;;5050246;28;20441;-73
2023/03/10 10:10:37;;;;;;;2.03;1.03;;;18.00;31.50;;;;;;5043795;28;20643;-72
2023/03/10 10:13:12;;;;;;;2.27;0.90;;;17.30;33.20;;;;;;5042474;28;20449;-72
2023/03/10 10:15:44;;;;;;;2.10;1.40;;;16.50;34.30;;;;;;5039310;28;20446;-72
2023/03/10 10:18:19;;;;;;;2.50;1.20;;;15.90;38.00;;;;;;5037834;28;20449;-71
2023/03/10 10:20:52;;;;;;;2.40;0.90;;;15.20;40.40;;;;;;5042554;28;20855;-70
2023/03/10 10:23:24;;;;;;;2.00;0.87;;;14.50;41.10;;;;;;5042807;28;20449;-71
2023/03/10 10:25:52;;;;;;;2.03;0.90;;;14.00;43.20;;;;;;5046814;28;20791;-70
2023/03/10 10:28:25;;;;;;;2.45;1.05;;;13.60;43.80;;;;;;5045498;28;20495;-70
2023/03/10 10:30:52;;;;;;;1.92;1.05;;;13.40;46.10;;;;;;5038575;28;20659;-70
2023/03/10 10:33:21;;;;;;;1.80;0.80;;;13.30;46.10;;;;;;5036111;28;20229;-70
2023/03/10 10:36:01;;;;;;;3.97;1.20;;;13.40;47.10;;;;;;5037628;28;20191;-71
2023/03/10 10:38:30;;;;;;;3.33;1.20;;;14.10;47.70;;;;;;5037812;28;20190;-76
2023/03/10 10:41:03;;;;;;;2.20;1.07;;;15.60;45.40;;;;;;5042822;28;20489;-71
2023/03/10 10:43:31;;;;;;;2.00;0.80;;;17.30;43.70;;;;;;5039147;28;20456;-71
2023/03/10 10:46:05;;;;;;;1.73;0.90;;;19.30;40.00;;;;;;5041475;28;20441;-72
2023/03/10 10:48:40;;;;;;;2.07;0.70;;;21.10;35.80;;;;;;5044264;28;20441;-72
2023/03/10 10:51:20;;;;;;;2.50;0.90;;;20.30;32.70;;;;;;5038680;28;20437;-72
2023/03/10 10:53:48;;;;;;;2.23;1.20;;;19.10;34.20;;;;;;5038711;28;20444;-71
2023/03/10 10:56:17;;;;;;;2.30;0.70;;;18.00;35.20;;;;;;5041146;28;20485;-72
2023/03/10 10:58:45;;;;;;;1.83;0.70;;;17.10;36.40;;;;;;5045779;28;20519;-71
2023/03/10 11:01:14;;;;;;;2.10;0.80;;;17.80;38.70;;;;;;5040018;28;20485;-72
2023/03/10 11:03:45;;;;;;;1.90;0.70;;;23.00;34.90;;;;;;5037369;28;20434;-72
2023/03/10 11:06:23;;;;;;;2.33;0.70;;;28.40;28.50;;;;;;5039301;28;20844;-72
2023/03/10 11:08:51;;;;;;;1.90;0.70;;;33.00;22.50;;;;;;5042619;28;20446;-72
2023/03/10 11:11:28;;;;;;;1.90;0.57;;;36.30;18.60;;;;;;5040720;28;20498;-72
2023/03/10 11:14:07;;;;;;;2.00;0.70;;;38.80;16.00;;;;;;5040544;28;20939;-73
2023/03/10 11:16:46;;;;;;;2.00;0.70;;;40.70;14.00;;;;;;5048794;28;20919;-73
2023/03/10 11:19:24;;;;;;;3.40;0.70;;;42.00;12.60;;;;;;5037757;28;20445;-70
2023/03/10 11:21:56;;;;;;;1.60;0.60;;;42.70;11.10;;;;;;5038597;28;20519;-72
2023/03/10 11:24:33;;;;;;;2.00;0.80;;;43.90;10.00;;;;;;5033016;28;20528;-70
2023/03/10 11:27:05;;;;;;;2.43;0.97;;;43.70;9.60;;;;;;5042962;28;20459;-71
2023/03/10 11:29:45;;;;;;;2.20;0.90;;;43.70;9.90;;;;;;5044641;28;22509;-75
2023/03/10 11:32:21;;;;;;;2.50;0.70;;;43.90;9.50;;;;;;5048105;28;20440;-71
2023/03/10 11:34:52;;;;;;;3.90;1.00;;;44.40;8.80;;;;;;5042600;28;20437;-71
2023/03/10 11:37:29;;;;;;;2.10;0.70;;;45.20;8.90;;;;;;5048244;28;20450;-71
2023/03/10 11:40:14;;;;;;;2.60;0.80;;;45.70;8.00;;;;;;5043387;28;20999;-71
2023/03/10 11:42:50;;;;;;;4.13;0.70;;;45.20;8.10;;;;;;5048044;28;20444;-72
2023/03/10 11:45:26;;;;;;;2.33;0.80;;;43.80;8.60;;;;;;5044703;28;20983;-70
2023/03/10 11:48:02;;;;;;;3.03;0.60;;;42.90;8.50;;;;;;5047845;28;20474;-71
2023/03/10 11:50:41;;;;;;;2.40;1.27;;;39.80;9.50;;;;;;5043614;28;20519;-71
2023/03/10 11:53:13;;;;;;;2.10;0.70;;;36.20;10.60;;;;;;5050959;28;20485;-70
2023/03/10 11:55:43;;;;;;;1.87;0.70;;;33.50;12.30;;;;;;5049686;28;20525;-73
2023/03/10 11:58:21;;;;;;;1.90;0.63;;;31.20;13.70;;;;;;5049430;28;20520;-73
2023/03/10 12:00:51;;;;;;;2.20;0.70;;;29.10;15.30;;;;;;5049527;28;20487;-72
2023/03/10 12:03:25;;;;;;;1.90;0.70;;;27.10;16.10;;;;;;5045350;28;20791;-72
2023/03/10 12:05:57;;;;;;;1.87;0.60;;;25.60;17.90;;;;;;5052337;28;20441;-72
2023/03/10 12:08:34;;;;;;;2.20;0.70;;;24.40;19.60;;;;;;5046735;28;20549;-72
2023/03/10 12:11:06;;;;;;;1.70;0.50;;;23.90;20.80;;;;;;5051252;28;20885;-72
2023/03/10 12:13:42;;;;;;;2.30;0.80;;;23.70;20.50;;;;;;5047017;28;20477;-72
2023/03/10 12:16:24;;;;;;;2.43;0.60;;;23.00;21.30;;;;;;5049518;28;20433;-73
2023/03/10 12:18:52;;;;;;;1.70;0.60;;;22.70;21.50;;;;;;5049941;28;20540;-71
2023/03/10 12:21:22;;;;;;;1.60;0.60;;;23.60;21.80;;;;;;5048795;28;20499;-71
2023/03/10 12:23:51;;;;;;;1.70;0.60;;;25.40;20.70;;;;;;5047943;28;20920;-72
2023/03/10 12:26:57;;;;;;;1.60;0.50;;;25.60;20.40;;;;;;5045557;28;21034;-76
2023/03/10 12:29:36;;;;;;;1.73;0.70;;;24.70;20.50;;;;;;5025019;28;20442;-73
2023/03/10 12:32:04;;;;;;;2.27;0.60;;;23.00;21.80;;;;;;5017347;28;20532;-72
2023/03/10 12:34:32;;;;;;;2.17;0.87;;;21.90;23.50;;;;;;5018680;28;20474;-71
2023/03/10 12:37:08;;;;;;;1.60;0.70;;;21.10;24.10;;;;;;5024338;28;20913;-72
2023/03/10 12:39:40;;;;;;;2.07;0.60;;;20.40;24.70;;;;;;5020719;28;20541;-72
2023/03/10 12:42:22;;;;;;;1.60;0.60;;;;;;;;;;5021130;28;20478;-74
2023/03/10 12:44:52;;;;;;;1.53;0.60;;;;;;;;;;5022387;28;20800;-72
2023/03/10 12:47:24;;;;;;;1.60;0.60;;;;;;;;;;5019814;28;21010;-72
2023/03/10 12:50:04;;;;;;;1.60;0.53;;;;;;;;;;5020645;28;20513;-72
2023/03/10 12:52:36;;;;;;;1.93;0.50;;;;;;;;;;5021556;28;20799;-73
2023/03/10 12:55:15;;;;;;;1.83;0.60;;;20.10;25.90;;;;;;5019632;28;20442;-72
2023/03/10 12:57:57;;;;;;;1.73;0.50;;;29.80;18.60;;;;;;5022984;28;20439;-73
2023/03/10 13:00:32;;;;;;;1.53;0.50;;;29.90;18.30;;;;;;5023153;28;20490;-72
2023/03/10 13:03:12;;;;;;;1.67;0.60;;;30.00;17.90;;;;;;5019159;28;20865;-72
2023/03/10 13:05:57;;;;;;;1.73;0.67;;;29.20;18.00;;;;;;5020169;28;20444;-73
2023/03/10 13:08:34;;;;;;;1.60;0.50;;;28.20;18.60;;;;;;5020925;28;20442;-73